Time;durP1;ratioP1;P1;durP2;ratioP2;P2;SDS_P1;SDS_P2;PMS_P1;PMS_P2;Temp;Humidity;BMP_temperature;BMP_pressure;BME280_temperature;BME280_humidity;BME280_pressure;Samples;Min_cycle;Max_cycle;Signal;HPM_P1;HPM_P2
2020/12/19 00:02:06;;;;;;;13.80;12.07;;;;;;;6.46;77.79;100632.97;9766850;28;20061;-66
2020/12/19 00:07:14;;;;;;;12.10;10.90;;;;;;;6.38;77.88;100606.97;9819384;28;20062;-65
2020/12/19 00:12:20;;;;;;;12.40;11.10;;;;;;;6.35;77.86;100592.13;9834746;28;20069;-65
2020/12/19 00:17:21;;;;;;;12.00;10.80;;;;;;;6.32;78.20;100600.25;9827631;28;20058;-66
2020/12/19 00:22:22;;;;;;;14.20;11.25;;;;;;;6.37;77.53;100616.69;9785804;28;20061;-66
2020/12/19 00:27:23;;;;;;;12.90;11.60;;;;;;;6.36;77.50;100593.84;9807978;28;20124;-67
2020/12/19 00:32:25;;;;;;;13.00;10.98;;;;;;;6.39;77.90;100594.59;9805158;28;20101;-66
2020/12/19 00:37:28;;;;;;;12.57;11.23;;;;;;;6.28;78.22;100572.25;9769335;28;20105;-66
2020/12/19 00:42:30;;;;;;;14.07;12.43;;;;;;;6.26;77.87;100565.34;9742754;28;20051;-66
2020/12/19 00:47:35;;;;;;;12.27;10.68;;;;;;;6.24;77.96;100573.38;9737656;28;20457;-66
2020/12/19 00:52:36;;;;;;;12.18;10.98;;;;;;;6.30;77.83;100566.88;9743300;28;20132;-66
2020/12/19 00:57:38;;;;;;;12.18;10.98;;;;;;;6.26;77.87;100560.06;9751158;28;20058;-66
2020/12/19 01:02:39;;;;;;;12.40;10.95;;;;;;;6.22;77.92;100558.56;9783035;28;20062;-69
2020/12/19 01:07:47;;;;;;;13.25;11.85;;;;;;;6.09;78.26;100548.66;9807021;28;21314;-65
2020/12/19 01:12:48;;;;;;;12.00;10.73;;;;;;;5.90;78.51;100529.47;9803120;28;20074;-65
2020/12/19 01:17:49;;;;;;;11.15;10.05;;;;;;;6.01;78.34;100553.53;9787005;28;20130;-66
2020/12/19 01:22:50;;;;;;;13.45;11.68;;;;;;;5.98;78.94;100561.66;9785010;28;20224;-66
2020/12/19 01:27:52;;;;;;;12.43;10.82;;;;;;;5.93;78.84;100553.94;9788764;28;20112;-66
2020/12/19 01:32:54;;;;;;;12.63;11.32;;;;;;;5.82;78.95;100545.75;9811044;28;20126;-66
2020/12/19 01:38:09;;;;;;;14.07;11.13;;;;;;;5.85;78.77;100558.81;9799116;28;20065;-67
2020/12/19 01:43:10;;;;;;;12.63;11.35;;;;;;;5.83;78.93;100550.13;9779293;28;20120;-66
2020/12/19 01:48:32;;;;;;;12.80;11.52;;;;;;;5.62;79.24;100508.09;9750860;28;20055;-67
2020/12/19 01:53:33;;;;;;;12.10;10.73;;;;;;;5.77;78.84;100526.69;9766258;28;20076;-66
2020/12/19 01:58:35;;;;;;;14.35;11.23;;;;;;;5.78;79.14;100539.81;9763702;28;22875;-66
2020/12/19 02:03:37;;;;;;;11.45;10.25;;;;;;;5.77;78.88;100542.53;9773294;28;21920;-66
2020/12/19 02:08:38;;;;;;;12.07;10.88;;;;;;;5.78;79.17;100545.09;9775664;28;20105;-66
2020/12/19 02:13:39;;;;;;;11.82;10.63;;;;;;;5.78;78.94;100539.81;9750221;28;20085;-66
2020/12/19 02:18:40;;;;;;;12.65;11.18;;;;;;;5.76;78.97;100531.09;9747673;28;20061;-65
2020/12/19 02:23:42;;;;;;;13.38;10.73;;;;;;;5.60;79.54;100498.56;9727176;28;20214;-68
2020/12/19 02:28:43;;;;;;;12.02;10.80;;;;;;;5.68;78.85;100508.72;9773947;28;20101;-71
2020/12/19 02:33:44;;;;;;;12.05;10.75;;;;;;;5.80;79.07;100521.22;9779885;28;20109;-66
2020/12/19 02:38:46;;;;;;;12.02;10.77;;;;;;;5.89;78.39;100510.13;9773665;28;20545;-66
2020/12/19 02:43:52;;;;;;;13.88;11.52;;;;;;;5.95;78.13;100499.22;9821624;28;20520;-66
2020/12/19 02:48:53;;;;;;;13.15;10.57;;;;;;;5.40;78.17;100425.75;9832441;28;23803;-65
2020/12/19 02:53:55;;;;;;;12.60;11.30;;;;;;;5.82;78.47;100483.22;9762293;28;20448;-67
2020/12/19 02:58:56;;;;;;;12.57;10.88;;;;;;;5.74;78.49;100480.16;9739488;28;20180;-66
2020/12/19 03:03:59;;;;;;;13.82;11.90;;;;;;;5.83;78.46;100511.34;9760981;28;20047;-68
2020/12/19 03:09:06;;;;;;;12.15;10.82;;;;;;;5.78;78.52;100496.66;9741312;28;20184;-67
2020/12/19 03:14:08;;;;;;;12.52;11.23;;;;;;;5.69;78.50;100491.91;9734216;28;20051;-70
2020/12/19 03:19:09;;;;;;;12.75;11.32;;;;;;;5.83;78.60;100515.78;9715411;28;20160;-68
2020/12/19 03:24:10;;;;;;;11.82;10.63;;;;;;;5.67;78.39;100473.50;9734955;28;20417;-67
2020/12/19 03:29:12;;;;;;;12.95;11.55;;;;;;;5.97;78.25;100497.34;9730280;28;20055;-66
2020/12/19 03:34:14;;;;;;;12.57;11.25;;;;;;;6.01;78.31;100493.59;9718462;28;20054;-72
2020/12/19 03:39:16;;;;;;;12.43;11.10;;;;;;;6.11;77.80;100487.78;9739601;28;21778;-66
2020/12/19 03:44:18;;;;;;;12.82;11.32;;;;;;;6.19;77.57;100469.69;9708816;28;20050;-65
2020/12/19 03:49:19;;;;;;;11.85;10.55;;;;;;;6.18;77.55;100489.13;9734605;28;20219;-66
2020/12/19 03:54:21;;;;;;;12.43;11.13;;;;;;;6.19;77.41;100475.00;9735564;28;20059;-67
2020/12/19 03:59:25;;;;;;;11.68;10.48;;;;;;;6.05;77.56;100445.84;9733358;28;20129;-66
2020/12/19 04:04:26;;;;;;;12.25;11.02;;;;;;;6.26;77.20;100476.34;9725516;28;20590;-67
2020/12/19 04:09:33;;;;;;;13.82;12.35;;;;;;;6.17;77.18;100458.34;9766170;28;20521;-67
2020/12/19 04:14:39;;;;;;;13.60;12.07;;;;;;;6.28;77.46;100468.31;9783666;28;20070;-66
2020/12/19 04:19:41;;;;;;;;;;;;;;;6.30;77.02;100472.53;9803501;28;20061;-67
2020/12/19 04:24:42;;;;;;;13.32;11.77;;;;;;;6.31;77.15;100471.63;9764685;28;19984;-67
2020/12/19 04:29:44;;;;;;;12.52;11.23;;;;;;;6.37;77.14;100462.47;9790071;28;22271;-66
2020/12/19 04:34:45;;;;;;;13.60;12.20;;;;;;;6.34;76.85;100452.09;9780162;28;20125;-66
2020/12/19 04:39:55;;;;;;;13.82;12.13;;;;;;;6.42;76.48;100454.25;9797404;28;20644;-66
2020/12/19 04:44:56;;;;;;;13.93;12.35;;;;;;;6.42;76.59;100451.63;9811220;28;20058;-66
2020/12/19 04:49:59;;;;;;;13.40;12.02;;;;;;;6.33;76.29;100431.88;9781858;28;20055;-66
2020/12/19 04:55:00;;;;;;;12.98;11.68;;;;;;;6.41;76.42;100452.56;9777098;28;20047;-66
2020/12/19 05:00:03;;;;;;;15.40;13.80;;;;;;;6.42;76.40;100438.41;9804157;28;20058;-67
2020/12/19 05:05:06;;;;;;;14.52;12.52;;;;;;;6.42;76.74;100460.41;9832942;28;20059;-66
2020/12/19 05:10:15;;;;;;;14.50;12.43;;;;;;;6.44;76.14;100442.66;9777774;28;20057;-67
2020/12/19 05:15:17;;;;;;;14.20;12.10;;;;;;;6.43;76.08;100446.25;9805201;28;20070;-66
2020/12/19 05:20:24;;;;;;;14.73;12.88;;;;;;;6.47;76.57;100462.75;9843114;28;20054;-65
2020/12/19 05:25:26;;;;;;;13.98;12.63;;;;;;;6.49;76.35;100452.97;9818985;28;20137;-66
2020/12/19 05:30:29;;;;;;;13.48;11.57;;;;;;;6.44;76.03;100445.31;9777854;28;20142;-65
2020/12/19 05:35:30;;;;;;;14.18;12.25;;;;;;;6.32;76.96;100454.81;9807098;28;20138;-66
2020/12/19 05:40:34;;;;;;;16.35;13.25;;;;;;;6.29;76.96;100449.72;9793536;28;20051;-66
2020/12/19 05:45:35;;;;;;;14.15;12.43;;;;;;;6.20;77.16;100447.63;9796929;28;20117;-66
2020/12/19 05:50:36;;;;;;;14.38;12.88;;;;;;;6.21;77.04;100457.22;9799838;28;20227;-65
2020/12/19 05:55:37;;;;;;;14.23;12.70;;;;;;;6.20;77.02;100458.19;9777480;28;20920;-66
2020/12/19 06:00:40;;;;;;;14.43;12.18;;;;;;;6.16;76.98;100465.44;9767564;28;20058;-66
2020/12/19 06:05:42;;;;;;;13.48;11.93;;;;;;;6.15;77.38;100457.59;9806423;28;20137;-65
2020/12/19 06:10:52;;;;;;;14.05;12.65;;;;;;;6.18;76.91;100463.56;9776569;28;20514;-67
2020/12/19 06:16:04;;;;;;;14.63;12.40;;;;;;;6.15;76.98;100444.38;9780258;28;20059;-66
2020/12/19 06:21:10;;;;;;;13.63;12.18;;;;;;;6.23;77.02;100436.88;9765008;28;20137;-67
2020/12/19 06:26:12;;;;;;;;;;;;;;;6.32;76.74;100438.94;9764828;28;20066;-66
2020/12/19 06:31:20;;;;;;;14.20;12.70;;;;;;;6.35;76.64;100448.47;9757889;28;19934;-65
2020/12/19 06:36:26;;;;;;;17.25;14.20;;;;;;;6.35;76.83;100437.91;9774836;28;20133;-67
2020/12/19 06:41:52;;;;;;;15.90;14.30;;;;;;;6.26;76.69;100449.03;9747496;28;20218;-66
2020/12/19 06:46:56;;;;;;;14.65;13.15;;;;;;;6.25;76.96;100450.84;9767100;28;20447;-66
2020/12/19 06:51:58;;;;;;;13.98;12.57;;;;;;;6.30;76.78;100448.75;9755630;28;20070;-66
2020/12/19 06:57:00;;;;;;;14.77;13.20;;;;;;;6.23;76.81;100447.44;9771318;28;24578;-65
2020/12/19 07:02:18;;;;;;;13.98;12.57;;;;;;;6.12;76.84;100448.03;9779196;28;20066;-64
2020/12/19 07:07:25;;;;;;;15.05;12.77;;;;;;;6.14;77.18;100463.81;9771695;28;20066;-65
2020/12/19 07:12:29;;;;;;;15.20;12.18;;;;;;;6.09;77.31;100461.44;9757721;28;20145;-65
2020/12/19 07:17:43;;;;;;;13.90;12.60;;;;;;;5.97;77.18;100463.00;10007641;28;20055;-66
2020/12/19 07:22:44;;;;;;;12.85;11.48;;;;;;;6.01;77.39;100477.75;9772114;28;20058;-66
2020/12/19 07:27:45;;;;;;;12.98;11.68;;;;;;;5.96;77.50;100490.34;9778817;28;20109;-66
2020/12/19 07:32:49;;;;;;;14.93;12.93;;;;;;;5.92;77.69;100495.91;9788196;28;20059;-64
2020/12/19 07:37:51;;;;;;;14.52;13.02;;;;;;;5.89;77.97;100480.22;9815933;28;20059;-64
2020/12/19 07:43:06;;;;;;;13.50;12.10;;;;;;;5.90;77.55;100479.28;9787065;28;20058;-64
2020/12/19 07:48:08;;;;;;;;;;;;;;;5.90;77.28;100485.44;9803734;28;20148;-65
2020/12/19 07:53:09;;;;;;;14.88;13.40;;;;;;;5.86;77.36;100483.91;9868836;28;19938;-66
2020/12/19 07:58:11;;;;;;;14.60;13.10;;;;;;;5.89;77.21;100462.56;9985641;28;24036;-65
2020/12/19 08:03:12;;;;;;;14.55;13.02;;;;;;;5.99;77.36;100495.50;9790182;28;20117;-65
2020/12/19 08:08:14;;;;;;;15.18;13.68;;;;;;;5.99;77.17;100500.78;9785719;28;20609;-65
2020/12/19 08:13:15;;;;;;;15.43;13.82;;;;;;;6.01;77.22;100493.59;9806847;28;24178;-70
2020/12/19 08:18:17;;;;;;;14.35;12.55;;;;;;;6.13;77.29;100496.50;9798975;28;20058;-65
2020/12/19 08:23:19;;;;;;;15.13;13.52;;;;;;;6.18;76.47;100483.84;9762130;28;20050;-66
2020/12/19 08:28:21;;;;;;;15.23;12.52;;;;;;;6.26;75.95;100486.91;9781803;28;20061;-66
2020/12/19 08:33:26;;;;;;;;;;;;;;;6.47;75.40;100483.91;9801055;28;20165;-65
2020/12/19 08:38:31;;;;;;;13.87;12.50;;;;;;;6.60;74.24;100471.66;9771513;28;22825;-66
2020/12/19 08:43:35;;;;;;;14.20;12.70;;;;;;;6.78;73.80;100474.13;9769255;28;21860;-67
2020/12/19 08:48:37;;;;;;;13.18;11.82;;;;;;;6.86;73.03;100488.59;9773730;28;20062;-67
2020/12/19 08:53:40;;;;;;;13.00;11.65;;;;;;;6.82;72.24;100452.69;9792787;28;20053;-67
2020/12/19 08:58:41;;;;;;;14.02;11.98;;;;;;;7.10;72.67;100481.88;9789546;28;20537;-67
2020/12/19 09:03:44;;;;;;;13.43;12.07;;;;;;;7.07;72.66;100504.97;9773335;28;21472;-66
2020/12/19 09:08:47;;;;;;;12.82;11.63;;;;;;;7.02;72.46;100511.47;9756799;28;20063;-67
2020/12/19 09:13:49;;;;;;;12.68;11.38;;;;;;;7.07;72.23;100491.72;9763402;28;20066;-68
2020/12/19 09:18:51;;;;;;;13.82;12.52;;;;;;;7.19;71.54;100515.72;9764595;28;20105;-65
2020/12/19 09:23:53;;;;;;;13.48;11.98;;;;;;;7.10;71.72;100527.75;9776796;28;20196;-65
2020/12/19 09:28:54;;;;;;;12.95;11.80;;;;;;;7.01;71.94;100497.41;9766457;28;20054;-65
2020/12/19 09:33:55;;;;;;;12.73;11.43;;;;;;;6.87;71.88;100490.28;9764389;28;20266;-65
2020/12/19 09:38:57;;;;;;;13.43;11.57;;;;;;;6.85;72.44;100478.13;9772494;28;20054;-66
2020/12/19 09:43:59;;;;;;;12.75;11.55;;;;;;;6.97;71.74;100509.13;9774172;28;20061;-66
2020/12/19 09:49:01;;;;;;;15.52;11.57;;;;;;;7.02;71.52;100507.03;9735184;28;20137;-64
2020/12/19 09:54:02;;;;;;;13.02;11.20;;;;;;;7.08;71.04;100519.88;9783801;28;20123;-67
2020/12/19 09:59:04;;;;;;;12.23;10.95;;;;;;;7.10;70.89;100505.72;9768525;28;20085;-67
2020/12/19 10:04:05;;;;;;;12.40;11.10;;;;;;;7.23;69.82;100491.59;9762400;28;20458;-66
2020/12/19 10:09:07;;;;;;;11.82;10.55;;;;;;;7.34;69.91;100490.94;9822464;28;22000;-66
2020/12/19 10:14:09;;;;;;;10.90;9.80;;;;;;;7.56;69.26;100494.88;9761666;28;20134;-65
2020/12/19 10:19:11;;;;;;;11.35;10.25;;;;;;;8.03;67.21;100487.41;9796895;28;20130;-65
2020/12/19 10:24:12;;;;;;;12.02;10.63;;;;;;;8.63;65.54;100504.66;9793702;28;20050;-66
2020/12/19 10:29:14;;;;;;;10.23;9.23;;;;;;;8.96;64.41;100487.34;9805086;28;20563;-66
2020/12/19 10:34:15;;;;;;;9.68;8.68;;;;;;;9.30;62.92;100485.81;9759211;28;20146;-67
2020/12/19 10:39:17;;;;;;;9.13;8.32;;;;;;;9.47;61.99;100491.72;9773294;28;23519;-65
2020/12/19 10:44:18;;;;;;;9.48;8.57;;;;;;;9.93;60.83;100490.19;9754899;28;20130;-66
2020/12/19 10:49:19;;;;;;;8.60;7.80;;;;;;;10.34;59.08;100473.78;9776153;28;20106;-69
2020/12/19 10:54:21;;;;;;;9.30;8.50;;;;;;;10.82;58.55;100470.13;9763972;28;20055;-67
2020/12/19 10:59:30;;;;;;;8.13;7.40;;;;;;;12.24;53.33;100441.88;9761501;28;20637;-64
2020/12/19 11:04:31;;;;;;;9.05;8.25;;;;;;;10.99;56.09;100451.97;9771675;28;20285;-65
2020/12/19 11:09:32;;;;;;;8.55;7.75;;;;;;;10.54;59.09;100453.66;9750306;28;20130;-64
2020/12/19 11:14:34;;;;;;;8.60;7.75;;;;;;;10.21;58.95;100444.59;9758933;28;20454;-65
2020/12/19 11:19:36;;;;;;;8.18;7.38;;;;;;;9.83;60.14;100424.41;9751588;28;20068;-65
2020/12/19 11:24:37;;;;;;;8.27;7.47;;;;;;;9.53;60.86;100417.72;9789512;28;20133;-66
2020/12/19 11:29:39;;;;;;;8.13;7.32;;;;;;;9.65;59.94;100405.34;9767975;28;20063;-66
2020/12/19 11:34:41;;;;;;;7.75;7.05;;;;;;;11.58;55.41;100433.00;9771267;28;25872;-65
2020/12/19 11:39:42;;;;;;;9.18;8.27;;;;;;;14.11;47.48;100412.91;9772643;28;20066;-66
2020/12/19 11:44:43;;;;;;;9.57;8.68;;;;;;;13.76;48.40;100404.47;9767847;28;20122;-72
2020/12/19 11:49:45;;;;;;;7.47;6.85;;;;;;;15.10;45.70;100399.09;9770494;28;20058;-65
2020/12/19 11:54:46;;;;;;;7.32;6.72;;;;;;;20.53;35.73;100392.53;9779850;28;20058;-66
2020/12/19 11:59:47;;;;;;;7.10;6.50;;;;;;;20.05;34.98;100396.34;9776150;28;20113;-65
2020/12/19 12:04:49;;;;;;;7.22;6.57;;;;;;;20.06;34.45;100408.00;9785371;28;20054;-65
2020/12/19 12:09:50;;;;;;;7.75;6.95;;;;;;;21.48;30.94;100383.56;9768021;28;20055;-66
2020/12/19 12:14:52;;;;;;;7.75;7.10;;;;;;;21.91;30.18;100379.22;9777875;28;21677;-64
2020/12/19 12:19:53;;;;;;;11.55;10.73;;;;;;;23.52;28.11;100373.66;9784389;28;20874;-65
2020/12/19 12:24:54;;;;;;;8.55;7.82;;;;;;;26.05;24.38;100375.94;9778884;28;20105;-66
2020/12/19 12:29:55;;;;;;;7.40;6.32;;;;;;;22.24;28.69;100364.03;9783765;28;20059;-66
2020/12/19 12:34:57;;;;;;;7.03;6.32;;;;;;;21.64;29.88;100351.88;9792009;28;20244;-66
2020/12/19 12:39:58;;;;;;;8.25;7.55;;;;;;;22.60;28.66;100363.06;9800958;28;20064;-66
2020/12/19 12:44:59;;;;;;;6.82;6.32;;;;;;;23.75;26.96;100356.13;9799517;28;20074;-66
2020/12/19 12:50:00;;;;;;;6.70;6.10;;;;;;;23.26;27.94;100350.84;9782418;28;20102;-66
2020/12/19 12:55:01;;;;;;;6.95;6.35;;;;;;;23.63;26.62;100366.81;9801618;28;20051;-65
2020/12/19 13:00:04;;;;;;;7.65;7.00;;;;;;;19.62;32.55;100363.56;9821380;28;20057;-66
2020/12/19 13:05:05;;;;;;;7.47;6.87;;;;;;;16.09;39.98;100357.09;9788567;28;20148;-65
2020/12/19 13:10:07;;;;;;;8.05;7.43;;;;;;;15.48;41.22;100369.50;9767518;28;21509;-65
2020/12/19 13:15:08;;;;;;;8.48;7.78;;;;;;;15.03;43.15;100361.31;9770726;28;20059;-64
2020/12/19 13:20:09;;;;;;;8.48;7.70;;;;;;;16.02;41.06;100350.69;9776347;28;20059;-65
2020/12/19 13:25:10;;;;;;;8.48;7.30;;;;;;;13.91;45.50;100366.59;9790533;28;20054;-66
2020/12/19 13:30:12;;;;;;;10.57;9.57;;;;;;;12.80;49.09;100368.53;9777010;28;20514;-65
2020/12/19 13:35:17;;;;;;;21.48;19.38;;;;;;;11.90;51.84;100378.81;9772411;28;20184;-65
2020/12/19 13:40:20;;;;;;;15.13;13.73;;;;;;;11.49;53.29;100372.44;9787189;28;20120;-68
2020/12/19 13:45:22;;;;;;;8.10;7.30;;;;;;;11.37;54.37;100384.97;9763671;28;20070;-65
2020/12/19 13:50:23;;;;;;;12.85;10.75;;;;;;;11.19;55.04;100378.47;9771363;28;20185;-65
2020/12/19 13:55:24;;;;;;;9.77;8.88;;;;;;;11.02;55.42;100387.81;9777624;28;20174;-65
2020/12/19 14:00:25;;;;;;;9.43;8.52;;;;;;;10.91;55.78;100397.53;9773659;28;25411;-64
2020/12/19 14:05:27;;;;;;;8.10;7.30;;;;;;;10.60;56.40;100375.16;9768050;28;20777;-65
2020/12/19 14:10:28;;;;;;;9.38;8.45;;;;;;;10.58;57.48;100377.94;9765143;28;20505;-64
2020/12/19 14:15:36;;;;;;;8.70;7.90;;;;;;;10.42;57.69;100385.41;9773673;28;20058;-64
2020/12/19 14:20:38;;;;;;;7.85;7.05;;;;;;;10.27;58.21;100401.56;9796023;28;22160;-64
2020/12/19 14:25:40;;;;;;;9.38;8.48;;;;;;;10.17;58.90;100400.56;9780546;28;24466;-65
2020/12/19 14:30:41;;;;;;;10.77;9.00;;;;;;;10.08;59.04;100395.94;9785897;28;20142;-64
2020/12/19 14:35:44;;;;;;;7.93;7.22;;;;;;;9.96;58.92;100391.56;9795708;28;23421;-65
2020/12/19 14:40:45;;;;;;;8.82;7.65;;;;;;;9.77;59.03;100398.25;9785874;28;20058;-64
2020/12/19 14:45:59;;;;;;;8.07;7.28;;;;;;;9.67;59.71;100410.56;9769949;28;20105;-64
2020/12/19 14:51:00;;;;;;;8.05;7.25;;;;;;;9.43;60.18;100390.13;9785893;28;21695;-65
2020/12/19 14:56:01;;;;;;;8.63;7.82;;;;;;;9.39;60.47;100404.59;9787956;28;22138;-63
2020/12/19 15:01:07;;;;;;;8.45;7.65;;;;;;;9.31;60.61;100417.59;9787116;28;20070;-64
2020/12/19 15:06:12;;;;;;;8.48;7.68;;;;;;;9.24;60.48;100421.66;9785819;28;20969;-64
2020/12/19 15:11:17;;;;;;;8.18;7.35;;;;;;;9.08;61.01;100424.56;9783679;28;21464;-65
2020/12/19 15:16:19;;;;;;;8.63;7.55;;;;;;;8.94;61.51;100420.25;9819844;28;21475;-64
2020/12/19 15:21:22;;;;;;;9.32;8.43;;;;;;;8.81;61.41;100399.88;9785025;28;20121;-64
2020/12/19 15:26:27;;;;;;;9.40;7.82;;;;;;;8.80;61.75;100411.44;9816969;28;20122;-65
2020/12/19 15:31:28;;;;;;;9.75;8.13;;;;;;;8.66;62.18;100417.72;9788136;28;20086;-65
2020/12/19 15:36:29;;;;;;;9.60;8.32;;;;;;;8.52;62.01;100415.19;9922338;28;20051;-64
2020/12/19 15:41:31;;;;;;;9.65;8.75;;;;;;;8.50;62.46;100417.09;9785028;28;20061;-64
2020/12/19 15:46:32;;;;;;;9.07;8.15;;;;;;;8.36;62.49;100427.75;9772008;28;20536;-64
2020/12/19 15:51:33;;;;;;;10.15;9.07;;;;;;;8.24;62.91;100424.16;9776492;28;20073;-66
2020/12/19 15:56:34;;;;;;;9.77;8.82;;;;;;;8.10;63.05;100423.28;9794372;28;20809;-65
2020/12/19 16:01:36;;;;;;;9.50;8.50;;;;;;;8.12;63.32;100441.72;9767632;28;20077;-67
2020/12/19 16:06:39;;;;;;;10.48;9.43;;;;;;;8.01;64.06;100453.06;9773707;28;20062;-62
2020/12/19 16:11:40;;;;;;;10.88;8.73;;;;;;;7.99;63.57;100454.97;9800578;28;20051;-66
2020/12/19 16:16:50;;;;;;;11.55;10.45;;;;;;;7.72;64.45;100416.09;9774571;28;20233;-67
2020/12/19 16:21:51;;;;;;;10.68;9.68;;;;;;;7.71;64.30;100442.69;9793641;28;20058;-65
2020/12/19 16:26:52;;;;;;;10.48;9.48;;;;;;;7.52;65.14;100421.84;9799114;28;20059;-64
2020/12/19 16:31:54;;;;;;;10.68;9.60;;;;;;;7.47;65.62;100439.84;9774893;28;21135;-66
2020/12/19 16:36:55;;;;;;;12.85;10.82;;;;;;;7.43;65.73;100453.28;9773204;28;20563;-63
2020/12/19 16:41:56;;;;;;;12.02;10.93;;;;;;;7.36;66.37;100457.25;9759327;28;20069;-64
2020/12/19 16:47:04;;;;;;;11.65;10.45;;;;;;;7.25;66.55;100450.00;9778859;28;20125;-66
2020/12/19 16:52:06;;;;;;;12.05;10.95;;;;;;;7.24;66.68;100442.16;9764082;28;20092;-66
2020/12/19 16:57:07;;;;;;;10.82;9.82;;;;;;;7.30;66.52;100456.81;9780810;28;20109;-66
2020/12/19 17:02:08;;;;;;;11.48;10.38;;;;;;;7.31;66.77;100440.84;9771689;28;20515;-65
2020/12/19 17:07:09;;;;;;;11.52;10.40;;;;;;;7.12;66.71;100440.31;9767934;28;20121;-65
2020/12/19 17:12:10;;;;;;;11.40;10.30;;;;;;;7.18;66.90;100447.84;9762241;28;20055;-65
2020/12/19 17:17:18;;;;;;;13.05;11.75;;;;;;;7.23;67.12;100440.44;9769719;28;20104;-65
2020/12/19 17:22:19;;;;;;;12.50;11.30;;;;;;;7.05;67.20;100410.69;9767752;28;20180;-63
2020/12/19 17:27:21;;;;;;;12.73;11.43;;;;;;;7.25;67.04;100454.44;9766876;28;20671;-66
2020/12/19 17:32:22;;;;;;;11.90;10.70;;;;;;;7.12;66.79;100456.19;9762506;28;20050;-65
2020/12/19 17:37:23;;;;;;;11.82;10.73;;;;;;;7.02;67.52;100456.72;9771797;28;22005;-67
2020/12/19 17:42:25;;;;;;;12.85;11.63;;;;;;;7.29;67.42;100487.72;9749070;28;20129;-66
2020/12/19 17:47:37;;;;;;;12.70;11.40;;;;;;;7.31;67.34;100482.31;9821706;28;20127;-64
2020/12/19 17:52:39;;;;;;;10.65;9.55;;;;;;;7.32;67.17;100479.59;9769633;28;20054;-65
2020/12/19 17:57:40;;;;;;;11.52;10.43;;;;;;;7.29;67.05;100485.06;9816500;28;20077;-65
2020/12/19 18:02:41;;;;;;;12.43;11.13;;;;;;;7.18;67.55;100485.75;9791599;28;20051;-63
2020/12/19 18:07:43;;;;;;;11.75;10.65;;;;;;;7.19;67.62;100483.94;9805606;28;20110;-67
2020/12/19 18:12:44;;;;;;;12.45;11.25;;;;;;;7.19;67.96;100481.31;9781284;28;21388;-66
2020/12/19 18:17:57;;;;;;;13.25;11.90;;;;;;;7.16;68.35;100486.78;9785322;28;20054;-67
2020/12/19 18:22:58;;;;;;;12.15;10.95;;;;;;;7.17;67.75;100478.75;9788807;28;20129;-66
2020/12/19 18:28:00;;;;;;;13.95;12.27;;;;;;;7.17;67.74;100478.75;9774898;28;20055;-67
2020/12/19 18:33:02;;;;;;;13.98;12.32;;;;;;;7.17;67.96;100475.25;9771388;28;20121;-65
2020/12/19 18:38:04;;;;;;;15.73;12.98;;;;;;;7.17;67.90;100485.84;9769609;28;20112;-64
2020/12/19 18:43:05;;;;;;;13.30;11.93;;;;;;;7.10;68.32;100487.19;9757720;28;20201;-64
2020/12/19 18:48:14;;;;;;;13.35;12.07;;;;;;;6.96;68.36;100470.34;9765820;28;20054;-66
2020/12/19 18:53:16;;;;;;;12.60;11.30;;;;;;;7.04;68.62;100483.97;9802177;28;20126;-65
2020/12/19 18:58:17;;;;;;;12.50;11.20;;;;;;;7.05;68.42;100488.31;9784875;28;20062;-65
2020/12/19 19:03:19;;;;;;;12.75;11.48;;;;;;;7.00;68.64;100490.41;9760719;28;20050;-64
2020/12/19 19:08:20;;;;;;;13.05;11.68;;;;;;;7.03;68.92;100495.50;9757479;28;20063;-67
2020/12/19 19:13:21;;;;;;;13.70;12.40;;;;;;;6.94;68.76;100488.13;9777483;28;20163;-64
2020/12/19 19:18:33;;;;;;;13.07;11.88;;;;;;;7.15;68.13;100516.88;9772229;28;20051;-67
2020/12/19 19:23:34;;;;;;;13.13;11.82;;;;;;;7.24;68.21;100521.59;9763911;28;20051;-65
2020/12/19 19:28:36;;;;;;;12.88;11.68;;;;;;;7.30;67.73;100505.31;9741290;28;20065;-65
2020/12/19 19:33:37;;;;;;;13.88;12.40;;;;;;;7.16;67.83;100492.97;9750797;28;20081;-66
2020/12/19 19:38:38;;;;;;;13.80;12.50;;;;;;;7.29;68.07;100514.22;9732676;28;20082;-65
2020/12/19 19:43:42;;;;;;;14.23;12.93;;;;;;;7.19;67.78;100505.13;9756732;28;20065;-65
2020/12/19 19:48:50;;;;;;;13.50;12.20;;;;;;;7.25;68.09;100510.03;9764189;28;20074;-66
2020/12/19 19:53:53;;;;;;;15.20;13.60;;;;;;;7.23;67.74;100514.59;9756308;28;20125;-66
2020/12/19 19:58:54;;;;;;;13.93;12.55;;;;;;;7.14;67.97;100494.00;9729866;28;21831;-65
2020/12/19 20:03:55;;;;;;;12.55;11.32;;;;;;;7.33;68.16;100510.44;9758525;28;22132;-65
2020/12/19 20:08:57;;;;;;;13.45;12.05;;;;;;;7.23;67.94;100502.19;9758309;28;20149;-64
2020/12/19 20:13:59;;;;;;;13.90;12.50;;;;;;;7.26;68.00;100509.09;9753655;28;20128;-64
2020/12/19 20:19:10;;;;;;;13.93;12.52;;;;;;;7.18;67.97;100491.06;9913548;28;20055;-65
2020/12/19 20:24:12;;;;;;;;;;;;;;;7.21;68.05;100508.56;9848367;28;20398;-66
2020/12/19 20:29:13;;;;;;;13.75;12.45;;;;;;;7.12;68.46;100480.84;9766903;28;21362;-65
2020/12/19 20:34:14;;;;;;;13.02;11.73;;;;;;;7.19;68.13;100498.06;9821059;28;21163;-65
2020/12/19 20:39:16;;;;;;;14.90;13.30;;;;;;;7.11;68.42;100504.78;9817442;28;23058;-64
2020/12/19 20:44:18;;;;;;;14.23;12.90;;;;;;;6.98;68.26;100484.38;9758848;28;20220;-65
2020/12/19 20:49:27;;;;;;;14.35;12.90;;;;;;;7.21;68.25;100500.59;9779440;28;20486;-65
2020/12/19 20:54:29;;;;;;;14.57;13.18;;;;;;;7.08;68.33;100482.81;9761833;28;21969;-64
2020/12/19 20:59:30;;;;;;;15.15;13.65;;;;;;;7.16;68.13;100492.97;9765524;28;20054;-65
2020/12/19 21:04:31;;;;;;;13.55;12.07;;;;;;;7.17;68.20;100504.38;9732604;28;20066;-64
2020/12/19 21:09:32;;;;;;;13.20;11.90;;;;;;;7.17;68.00;100514.97;9761568;28;20062;-65
2020/12/19 21:14:34;;;;;;;14.27;12.82;;;;;;;7.16;67.91;100515.91;9716157;28;20088;-65
2020/12/19 21:19:47;;;;;;;14.18;12.68;;;;;;;7.14;67.90;100520.47;9734874;28;20058;-66
2020/12/19 21:24:49;;;;;;;14.20;12.70;;;;;;;7.19;67.54;100515.72;9741699;28;20046;-65
2020/12/19 21:29:51;;;;;;;14.50;13.10;;;;;;;7.15;67.67;100501.84;9739946;28;20069;-66
2020/12/19 21:34:52;;;;;;;13.38;11.98;;;;;;;7.12;67.97;100511.78;9810712;28;20062;-64
2020/12/19 21:39:54;;;;;;;13.80;12.50;;;;;;;7.07;67.68;100512.91;9754153;28;20073;-65
2020/12/19 21:44:55;;;;;;;13.98;12.52;;;;;;;7.03;67.85;100492.84;9740671;28;21589;-65
2020/12/19 21:50:06;;;;;;;13.52;12.13;;;;;;;7.04;68.06;100497.22;9733960;28;20699;-64
2020/12/19 21:55:11;;;;;;;13.38;12.07;;;;;;;7.04;68.13;100502.50;9740433;28;20137;-65
2020/12/19 22:00:19;;;;;;;14.10;12.27;;;;;;;7.02;67.74;100495.59;9743403;28;20157;-64
2020/12/19 22:05:22;;;;;;;13.57;12.27;;;;;;;6.90;67.65;100491.91;9748318;28;20050;-67
2020/12/19 22:10:23;;;;;;;13.98;12.57;;;;;;;6.95;67.65;100516.31;9745863;28;20065;-67
2020/12/19 22:15:25;;;;;;;13.88;12.50;;;;;;;6.90;68.07;100503.38;9771400;28;21434;-66
2020/12/19 22:20:26;;;;;;;13.07;11.88;;;;;;;6.96;67.69;100517.16;9767889;28;20065;-65
2020/12/19 22:25:28;;;;;;;13.73;12.40;;;;;;;6.97;67.75;100511.75;9768817;28;20125;-66
2020/12/19 22:30:29;;;;;;;13.95;12.52;;;;;;;6.94;67.48;100521.69;9779064;28;20588;-66
2020/12/19 22:35:34;;;;;;;13.13;11.82;;;;;;;6.92;67.29;100497.09;9754789;28;20057;-67
2020/12/19 22:40:36;;;;;;;12.32;10.80;;;;;;;6.82;67.38;100483.59;9786656;28;20133;-66
2020/12/19 22:45:37;;;;;;;12.75;11.55;;;;;;;7.04;67.44;100514.88;9791274;28;20051;-66
2020/12/19 22:50:44;;;;;;;13.10;11.55;;;;;;;7.10;67.14;100506.56;9782598;28;20062;-66
2020/12/19 22:56:09;;;;;;;12.40;11.07;;;;;;;6.96;66.60;100504.75;9801508;28;22913;-67
2020/12/19 23:01:10;;;;;;;12.93;11.63;;;;;;;6.87;66.75;100479.69;9797841;28;20223;-66
2020/12/19 23:06:11;;;;;;;12.82;11.63;;;;;;;6.93;66.94;100501.47;9814069;28;20125;-66
2020/12/19 23:11:16;;;;;;;12.20;11.10;;;;;;;6.85;66.96;100531.88;9792089;28;20066;-67
2020/12/19 23:16:30;;;;;;;11.93;10.73;;;;;;;6.91;67.50;100520.09;9752589;28;20726;-66
2020/12/19 23:21:33;;;;;;;12.82;11.63;;;;;;;6.86;66.86;100495.69;9738802;28;20109;-66